Time;durP1;ratioP1;P1;durP2;ratioP2;P2;SDS_P1;SDS_P2;PMS_P1;PMS_P2;Temp;Humidity;BMP_temperature;BMP_pressure;BME280_temperature;BME280_humidity;BME280_pressure;Samples;Min_cycle;Max_cycle;Signal;HPM_P1;HPM_P2
2022/05/19 00:01:13;;;;;;;34.70;30.95;;;;;;;;;;5073221;28;20048;-88
2022/05/19 00:03:39;;;;;;;37.35;31.73;;;;;;;;;;5073055;28;20044;-88
2022/05/19 00:06:06;;;;;;;39.25;32.83;;;;;;;;;;5073113;28;20102;-88
2022/05/19 00:08:33;;;;;;;43.03;35.20;;;;;;;;;;5056408;28;20048;-88
2022/05/19 00:11:01;;;;;;;38.53;33.72;;;;;;;;;;5056396;28;20051;-88
2022/05/19 00:13:28;;;;;;;39.70;35.47;;;;;;;;;;5056424;28;20778;-89
2022/05/19 00:15:54;;;;;;;39.28;35.00;;;;;;;;;;5072796;28;20078;-89
2022/05/19 00:18:20;;;;;;;38.95;34.60;;;;;;;;;;5056202;28;20040;-88
2022/05/19 00:20:46;;;;;;;40.53;36.13;;;;;;;;;;5072603;28;20043;-89
2022/05/19 00:23:13;;;;;;;39.78;35.47;;;;;;;;;;5072962;28;20058;-89
2022/05/19 00:25:39;;;;;;;41.30;35.40;;;;;;;;;;5072810;28;20048;-89
2022/05/19 00:28:08;;;;;;;33.92;29.58;;;;;;;;;;5072801;28;20086;-89
2022/05/19 00:30:35;;;;;;;38.33;34.17;;;;;;;;;;5055688;28;20048;-89
2022/05/19 00:33:01;;;;;;;40.88;35.60;;;;;;;;;;5071939;28;20051;-89
2022/05/19 00:35:27;;;;;;;39.08;34.70;;;;;;;;;;5072282;28;20063;-89
2022/05/19 00:37:53;;;;;;;39.92;35.75;;;;;;;;;;5072408;28;20396;-88
2022/05/19 00:40:20;;;;;;;38.95;34.72;;;;;;;;;;5071837;28;20051;-88
2022/05/19 00:42:46;;;;;;;38.33;34.28;;;;;;;;;;5072551;28;20677;-89
2022/05/19 00:45:13;;;;;;;41.35;35.03;;;;;;;;;;5072544;28;20404;-89
2022/05/19 00:47:42;;;;;;;40.47;36.22;;;;;;;;;;5072262;28;20454;-88
2022/05/19 00:50:10;;;;;;;41.42;36.95;;;;;;;;;;5072327;28;20047;-89
2022/05/19 00:52:42;;;;;;;44.30;39.35;;;;;;;;;;5055392;28;20036;-89
2022/05/19 00:55:11;;;;;;;43.53;38.85;;;;;;;;;;5055319;28;20082;-88
2022/05/19 00:57:46;;;;;;;40.58;36.38;;;;;;;;;;5055116;28;20044;-89
2022/05/19 01:00:14;;;;;;;43.67;39.08;;;;;;;;;;5072654;28;20378;-88
2022/05/19 01:02:42;;;;;;;42.70;38.05;;;;;;;;;;5072192;28;20048;-89
2022/05/19 01:05:18;;;;;;;45.78;40.90;;;;;;;;;;5071824;28;20465;-89
2022/05/19 01:07:59;;;;;;;46.67;41.72;;;;;;;;;;5071652;28;20139;-89
2022/05/19 01:10:25;;;;;;;47.47;42.50;;;;;;;;;;5072173;28;20514;-90
2022/05/19 01:12:52;;;;;;;47.58;42.55;;;;;;;;;;5071777;28;20063;-90
2022/05/19 01:15:18;;;;;;;48.17;43.20;;;;;;;;;;5071932;28;20048;-89
2022/05/19 01:17:45;;;;;;;49.85;44.63;;;;;;;;;;5071913;28;20040;-89
2022/05/19 01:20:14;;;;;;;49.58;44.17;;;;;;;;;;5055204;28;20043;-89
2022/05/19 01:22:48;;;;;;;51.15;45.50;;;;;;;;;;5071869;28;20075;-89
2022/05/19 01:25:14;;;;;;;51.63;44.65;;;;;;;;;;5071616;28;20124;-89
2022/05/19 01:27:40;;;;;;;52.20;46.50;;;;;;;;;;5071630;28;20492;-88
2022/05/19 01:30:07;;;;;;;52.92;46.40;;;;;;;;;;5071809;28;20047;-89
2022/05/19 01:32:33;;;;;;;51.33;46.13;;;;;;;;;;5071168;28;20084;-88
2022/05/19 01:35:00;;;;;;;51.67;46.10;;;;;;;;;;5071604;28;20636;-88
2022/05/19 01:37:26;;;;;;;52.58;47.03;;;;;;;;;;5054951;28;20050;-90
2022/05/19 01:39:59;;;;;;;53.95;48.05;;;;;;;;;;5071595;28;20071;-89
2022/05/19 01:42:34;;;;;;;53.10;47.42;;;;;;;;;;5071781;28;20488;-89
2022/05/19 01:45:00;;;;;;;51.50;46.25;;;;;;;;;;5071258;28;20056;-89
2022/05/19 01:47:29;;;;;;;53.58;47.90;;;;;;;;;;5071596;28;20133;-90
2022/05/19 01:50:03;;;;;;;51.90;46.40;;;;;;;;;;5071714;28;20048;-89
2022/05/19 01:52:45;;;;;;;52.20;46.85;;;;;;;;;;5054976;28;20081;-90
2022/05/19 01:55:17;;;;;;;59.08;48.97;;;;;;;;;;5058758;28;20055;-89
2022/05/19 01:57:50;;;;;;;51.35;45.92;;;;;;;;;;5058200;28;20047;-89
2022/05/19 02:00:18;;;;;;;54.47;47.28;;;;;;;;;;5058731;28;20093;-89
2022/05/19 02:02:50;;;;;;;54.40;48.10;;;;;;;;;;5058759;28;20036;-88
2022/05/19 02:05:35;;;;;;;53.40;47.60;;;;;;;;;;5057702;28;20070;-89
2022/05/19 02:08:03;;;;;;;52.42;46.83;;;;;;;;;;5058453;28;20091;-88
2022/05/19 02:10:31;;;;;;;54.40;48.05;;;;;;;;;;5058662;28;20048;-89
2022/05/19 02:12:59;;;;;;;53.55;47.72;;;;;;;;;;5058390;28;20047;-89
2022/05/19 02:15:26;;;;;;;52.97;47.38;;;;;;;;;;5058430;28;20039;-89
2022/05/19 02:17:53;;;;;;;55.97;49.13;;;;;;;;;;5074395;28;20036;-90
2022/05/19 02:20:20;;;;;;;54.92;49.03;;;;;;;;;;5074976;28;20101;-89
2022/05/19 02:22:46;;;;;;;55.83;49.78;;;;;;;;;;5058368;28;20499;-89
2022/05/19 02:25:30;;;;;;;57.00;50.35;;;;;;;;;;5074799;28;20059;-89
2022/05/19 02:27:56;;;;;;;;;;;;;;;;;;5058128;28;20159;-90
2022/05/19 02:30:24;;;;;;;56.38;50.20;;;;;;;;;;5058146;28;20385;-89
2022/05/19 02:32:51;;;;;;;57.95;50.53;;;;;;;;;;5057959;28;20040;-89
2022/05/19 02:35:17;;;;;;;59.38;52.42;;;;;;;;;;5074931;28;20052;-89
2022/05/19 02:37:43;;;;;;;57.55;51.40;;;;;;;;;;5074031;28;20054;-88
2022/05/19 02:40:11;;;;;;;58.25;51.63;;;;;;;;;;5074637;28;20055;-89
2022/05/19 02:42:37;;;;;;;56.97;50.83;;;;;;;;;;5074941;28;20044;-89
2022/05/19 02:45:03;;;;;;;60.67;54.35;;;;;;;;;;5057636;28;20044;-89
2022/05/19 02:47:29;;;;;;;60.15;51.83;;;;;;;;;;5074435;28;20048;-88
2022/05/19 02:49:55;;;;;;;60.92;53.90;;;;;;;;;;5074154;28;20424;-88
2022/05/19 02:52:21;;;;;;;58.13;51.95;;;;;;;;;;5057904;28;20047;-89
2022/05/19 02:54:47;;;;;;;60.90;54.40;;;;;;;;;;5074336;28;20524;-88
2022/05/19 02:57:13;;;;;;;55.55;49.78;;;;;;;;;;5074269;28;20044;-90
2022/05/19 02:59:39;;;;;;;61.92;53.97;;;;;;;;;;5074289;28;20048;-89
2022/05/19 03:02:06;;;;;;;65.57;52.90;;;;;;;;;;5057074;28;20392;-88
2022/05/19 03:04:32;;;;;;;59.33;52.85;;;;;;;;;;5055331;28;20048;-88
2022/05/19 03:06:58;;;;;;;58.15;51.80;;;;;;;;;;5073929;28;20055;-88
2022/05/19 03:09:24;;;;;;;56.65;50.53;;;;;;;;;;5073953;28;20796;-89
2022/05/19 03:11:50;;;;;;;59.88;52.83;;;;;;;;;;5073838;28;20113;-89
2022/05/19 03:14:16;;;;;;;61.20;54.92;;;;;;;;;;5057131;28;20126;-89
2022/05/19 03:16:42;;;;;;;61.58;53.72;;;;;;;;;;5073573;28;20051;-88
2022/05/19 03:19:09;;;;;;;58.80;52.58;;;;;;;;;;5073294;28;20089;-88
2022/05/19 03:21:36;;;;;;;59.67;52.55;;;;;;;;;;5073303;28;20044;-89
2022/05/19 03:24:02;;;;;;;62.17;54.55;;;;;;;;;;5056946;28;20656;-89
2022/05/19 03:26:28;;;;;;;59.85;53.42;;;;;;;;;;5056902;28;20071;-89
2022/05/19 03:28:54;;;;;;;65.53;54.90;;;;;;;;;;5056615;28;20048;-88
2022/05/19 03:31:20;;;;;;;62.33;54.97;;;;;;;;;;5073384;28;20054;-89
2022/05/19 03:33:46;;;;;;;63.55;56.05;;;;;;;;;;5073059;28;20048;-89
2022/05/19 03:36:13;;;;;;;64.25;56.60;;;;;;;;;;5073976;28;20089;-88
2022/05/19 03:38:39;;;;;;;63.72;56.90;;;;;;;;;;5056202;28;20062;-88
2022/05/19 03:41:05;;;;;;;65.07;56.80;;;;;;;;;;5073334;28;20052;-89
2022/05/19 03:43:31;;;;;;;64.13;57.10;;;;;;;;;;5072796;28;20044;-88
2022/05/19 03:45:57;;;;;;;63.45;55.70;;;;;;;;;;5056752;28;20048;-88
2022/05/19 03:48:24;;;;;;;65.72;58.58;;;;;;;;;;5072793;28;20079;-88
2022/05/19 03:50:50;;;;;;;66.10;58.92;;;;;;;;;;5073228;28;20786;-89
2022/05/19 03:53:16;;;;;;;67.20;57.58;;;;;;;;;;5056615;28;20044;-89
2022/05/19 03:55:42;;;;;;;65.55;57.58;;;;;;;;;;5056654;28;20476;-89
2022/05/19 03:58:08;;;;;;;65.88;58.85;;;;;;;;;;5055762;28;20071;-89
2022/05/19 04:00:34;;;;;;;70.65;58.30;;;;;;;;;;5056160;28;20471;-89
2022/05/19 04:03:00;;;;;;;76.70;57.97;;;;;;;;;;5055852;28;20044;-88
2022/05/19 04:05:27;;;;;;;63.67;55.72;;;;;;;;;;5072333;28;20394;-88
2022/05/19 04:07:53;;;;;;;62.38;55.85;;;;;;;;;;5072642;28;20113;-89
2022/05/19 04:10:19;;;;;;;64.43;56.33;;;;;;;;;;5072657;28;20069;-89
2022/05/19 04:12:45;;;;;;;63.45;56.58;;;;;;;;;;5072724;28;20048;-89
2022/05/19 04:15:12;;;;;;;68.10;58.33;;;;;;;;;;5072806;28;20063;-89
2022/05/19 04:17:38;;;;;;;66.53;59.25;;;;;;;;;;5072136;28;20044;-89
2022/05/19 04:20:05;;;;;;;69.15;60.95;;;;;;;;;;5071965;28;20496;-88
2022/05/19 04:22:31;;;;;;;68.88;58.15;;;;;;;;;;5072312;28;20047;-89
2022/05/19 04:25:00;;;;;;;65.93;59.03;;;;;;;;;;5055754;28;20051;-89
2022/05/19 04:27:27;;;;;;;70.30;60.30;;;;;;;;;;5072371;28;20123;-89
2022/05/19 04:29:54;;;;;;;65.95;57.92;;;;;;;;;;5055765;28;20110;-88
2022/05/19 04:32:19;;;;;;;66.15;58.67;;;;;;;;;;5071877;28;20059;-89
2022/05/19 04:34:45;;;;;;;69.10;59.40;;;;;;;;;;5055218;28;20048;-89
2022/05/19 04:37:12;;;;;;;66.95;59.65;;;;;;;;;;5055726;28;20040;-88
2022/05/19 04:39:38;;;;;;;68.32;61.00;;;;;;;;;;5054855;28;20044;-89
2022/05/19 04:42:07;;;;;;;67.35;56.60;;;;;;;;;;5055463;28;20048;-89
2022/05/19 04:44:34;;;;;;;63.58;56.67;;;;;;;;;;5072104;28;20131;-89
2022/05/19 04:47:00;;;;;;;62.95;55.97;;;;;;;;;;5055407;28;20404;-88
2022/05/19 04:49:26;;;;;;;68.18;58.88;;;;;;;;;;5071886;28;20117;-88
2022/05/19 04:51:52;;;;;;;67.47;58.33;;;;;;;;;;5055091;28;20492;-88
2022/05/19 04:54:18;;;;;;;66.43;59.13;;;;;;;;;;5055661;28;20040;-89
2022/05/19 04:56:44;;;;;;;67.45;60.05;;;;;;;;;;5055243;28;20050;-89
2022/05/19 04:59:14;;;;;;;58.40;52.13;;;;;;;;;;5071853;28;20052;-89
2022/05/19 05:01:43;;;;;;;64.35;57.58;;;;;;;;;;5071775;28;20091;-89
2022/05/19 05:04:09;;;;;;;59.25;52.88;;;;;;;;;;5055158;28;20044;-89
2022/05/19 05:06:35;;;;;;;62.25;55.45;;;;;;;;;;5054984;28;20135;-90
2022/05/19 05:09:02;;;;;;;64.63;55.63;;;;;;;;;;5072125;28;20110;-88
2022/05/19 05:11:28;;;;;;;62.53;55.78;;;;;;;;;;5055149;28;20044;-89
2022/05/19 05:13:54;;;;;;;51.50;44.72;;;;;;;;;;5055225;28;20373;-88
2022/05/19 05:16:20;;;;;;;65.53;58.63;;;;;;;;;;5071450;28;20043;-89
2022/05/19 05:18:46;;;;;;;61.90;54.13;;;;;;;;;;5071576;28;20052;-88
2022/05/19 05:21:13;;;;;;;65.32;56.42;;;;;;;;;;5071802;28;20569;-88
2022/05/19 05:23:39;;;;;;;57.65;51.53;;;;;;;;;;5054644;28;20558;-89
2022/05/19 05:26:06;;;;;;;63.40;55.65;;;;;;;;;;5071321;28;20048;-90
2022/05/19 05:28:33;;;;;;;60.92;54.47;;;;;;;;;;5073402;28;20040;-89
2022/05/19 05:30:59;;;;;;;59.60;52.33;;;;;;;;;;5058865;28;20093;-88
2022/05/19 05:33:25;;;;;;;61.15;53.70;;;;;;;;;;5075555;28;20040;-89
2022/05/19 05:35:51;;;;;;;55.72;49.85;;;;;;;;;;5058965;28;20044;-89
2022/05/19 05:38:17;;;;;;;57.95;51.80;;;;;;;;;;5075711;28;20040;-89
2022/05/19 05:40:43;;;;;;;58.58;51.63;;;;;;;;;;5075618;28;20130;-89
2022/05/19 05:43:14;;;;;;;51.50;45.95;;;;;;;;;;5058849;28;20040;-90
2022/05/19 05:45:41;;;;;;;50.33;44.72;;;;;;;;;;5075411;28;20557;-89
2022/05/19 05:48:07;;;;;;;54.53;46.67;;;;;;;;;;5059256;28;20048;-90
2022/05/19 05:50:33;;;;;;;49.25;44.05;;;;;;;;;;5076013;28;20116;-90
2022/05/19 05:52:59;;;;;;;44.03;39.30;;;;;;;;;;5076385;28;20721;-90
2022/05/19 05:55:26;;;;;;;44.22;39.72;;;;;;;;;;5059242;28;20083;-89
2022/05/19 05:57:52;;;;;;;44.63;40.03;;;;;;;;;;5075519;28;20048;-88
2022/05/19 06:00:19;;;;;;;37.17;33.13;;;;;;;;;;5075943;28;20055;-89
2022/05/19 06:02:45;;;;;;;33.72;28.58;;;;;;;;;;5075701;28;20182;-90
2022/05/19 06:05:12;;;;;;;31.38;28.17;;;;;;;;;;5058668;28;20127;-88
2022/05/19 06:07:39;;;;;;;30.92;27.85;;;;;;;;;;5058284;28;20054;-89
2022/05/19 06:10:06;;;;;;;32.35;28.92;;;;;;;;;;5058123;28;20399;-87
2022/05/19 06:12:32;;;;;;;29.10;26.23;;;;;;;;;;5075409;28;20048;-87
2022/05/19 06:14:58;;;;;;;31.20;28.00;;;;;;;;;;5058697;28;20079;-91
2022/05/19 06:17:24;;;;;;;29.52;26.60;;;;;;;;;;5074879;28;20056;-89
2022/05/19 06:19:50;;;;;;;28.27;25.35;;;;;;;;;;5074468;28;20108;-89
2022/05/19 06:22:17;;;;;;;28.17;25.15;;;;;;;;;;5058028;28;20128;-88
2022/05/19 06:24:43;;;;;;;27.13;24.40;;;;;;;;;;5075275;28;20048;-88
2022/05/19 06:27:09;;;;;;;23.90;21.50;;;;;;;;;;5074980;28;20113;-89
2022/05/19 06:29:35;;;;;;;24.05;21.83;;;;;;;;;;5074488;28;20060;-88
2022/05/19 06:32:01;;;;;;;21.42;19.35;;;;;;;;;;5074834;28;20052;-88
2022/05/19 06:34:27;;;;;;;24.05;20.42;;;;;;;;;;5074011;28;20114;-90
2022/05/19 06:36:54;;;;;;;22.30;19.63;;;;;;;;;;5076221;28;20463;-91
2022/05/19 06:39:21;;;;;;;22.55;17.63;;;;;;;;;;5075249;28;20094;-88
2022/05/19 06:42:01;;;;;;;16.92;15.13;;;;;;;;;;5074413;28;20524;-90
2022/05/19 06:44:38;;;;;;;16.90;14.40;;;;;;;;;;5058633;28;20044;-92
2022/05/19 06:47:10;;;;;;;17.73;15.85;;;;;;;;;;5076050;28;20055;-93
2022/05/19 06:49:36;;;;;;;17.95;16.15;;;;;;;;;;5078571;28;20052;-92
2022/05/19 06:52:03;;;;;;;19.10;16.77;;;;;;;;;;5079377;28;20055;-94
2022/05/19 06:54:29;;;;;;;19.52;15.85;;;;;;;;;;5063278;28;20044;-94
2022/05/19 06:56:55;;;;;;;16.52;14.10;;;;;;;;;;5080031;28;20052;-90
2022/05/19 06:59:23;;;;;;;19.02;16.95;;;;;;;;;;5080594;28;20114;-91
2022/05/19 07:01:51;;;;;;;18.50;15.93;;;;;;;;;;5063155;28;20526;-94
2022/05/19 07:04:17;;;;;;;18.00;16.05;;;;;;;;;;5063574;28;20086;-93
2022/05/19 07:06:47;;;;;;;16.33;14.63;;;;;;;;;;5081184;28;20052;-94
2022/05/19 07:09:13;;;;;;;22.48;17.15;;;;;;;;;;5065154;28;20060;-92
2022/05/19 07:11:39;;;;;;;18.40;16.45;;;;;;;;;;5064898;28;20444;-94
2022/05/19 07:14:06;;;;;;;19.00;17.10;;;;;;;;;;5080029;28;20052;-92
2022/05/19 07:16:33;;;;;;;19.92;17.83;;;;;;;;;;5082644;28;20048;-95
2022/05/19 07:22:04;;;;;;;21.35;18.10;;;;;;;;;;5079710;28;20143;-92
2022/05/19 07:24:31;;;;;;;21.63;18.98;;;;;;;;;;5080270;28;20040;-95
2022/05/19 07:27:20;;;;;;;20.95;18.80;;;;;;;;;;5065406;28;20048;-95
2022/05/19 07:29:46;;;;;;;21.15;19.02;;;;;;;;;;5064306;28;20554;-95
2022/05/19 07:32:15;;;;;;;21.90;19.08;;;;;;;;;;5082829;28;20058;-95
2022/05/19 07:34:56;;;;;;;22.13;19.80;;;;;;;;;;5084580;28;20047;-92
2022/05/19 07:37:24;;;;;;;20.98;18.77;;;;;;;;;;5064336;28;20087;-92
2022/05/19 07:39:51;;;;;;;21.80;19.20;;;;;;;;;;5077897;28;20105;-93
2022/05/19 07:42:19;;;;;;;22.10;19.80;;;;;;;;;;5061518;28;20044;-95
2022/05/19 07:44:46;;;;;;;20.92;18.88;;;;;;;;;;5065699;28;20048;-96
2022/05/19 07:47:14;;;;;;;22.23;19.88;;;;;;;;;;5066658;28;20048;-95
2022/05/19 07:49:43;;;;;;;21.52;19.35;;;;;;;;;;5062577;28;20507;-95
2022/05/19 07:52:10;;;;;;;21.33;19.10;;;;;;;;;;5063009;28;20479;-92
2022/05/19 07:54:39;;;;;;;22.30;19.85;;;;;;;;;;5080120;28;20122;-94
2022/05/19 07:57:06;;;;;;;26.95;16.70;;;;;;;;;;5064381;28;20509;-94
2022/05/19 07:59:32;;;;;;;24.60;18.70;;;;;;;;;;5062055;28;20134;-95
2022/05/19 08:01:59;;;;;;;57.83;51.83;;;;;;;;;;5061562;28;20105;-95
2022/05/19 08:04:28;;;;;;;22.13;19.80;;;;;;;;;;5060502;28;20040;-93
2022/05/19 08:06:56;;;;;;;20.45;17.95;;;;;;;;;;5060107;28;20047;-96
2022/05/19 08:12:07;;;;;;;26.08;20.42;;;;;;;;;;5076596;28;20130;-96
2022/05/19 08:17:22;;;;;;;23.35;19.70;;;;;;;;;;5077943;28;20071;-96
2022/05/19 08:19:51;;;;;;;26.20;20.17;;;;;;;;;;5060749;28;20521;-95
2022/05/19 08:22:17;;;;;;;23.83;21.50;;;;;;;;;;5067669;28;20048;-96
2022/05/19 08:24:49;;;;;;;23.25;19.80;;;;;;;;;;5076110;28;20044;-94
2022/05/19 08:29:56;;;;;;;26.08;23.35;;;;;;;;;;5643954;22;20328;-95
2022/05/19 08:32:32;;;;;;;27.08;24.27;;;;;;;;;;5082118;28;20060;-96
2022/05/19 08:35:04;;;;;;;29.50;24.33;;;;;;;;;;5073693;28;20048;-96
2022/05/19 08:37:31;;;;;;;31.15;25.55;;;;;;;;;;5071557;28;20155;-96
2022/05/19 08:40:29;;;;;;;29.00;25.85;;;;;;;;;;5095151;28;20051;-96
2022/05/19 08:46:42;;;;;;;23.75;21.52;;;;;;;;;;5010166;28;20049;-96
2022/05/19 08:49:38;;;;;;;28.67;25.00;;;;;;;;;;5084644;28;20048;-96
2022/05/19 08:52:09;;;;;;;30.23;27.13;;;;;;;;;;4987168;28;20060;-95
2022/05/19 08:54:39;;;;;;;30.50;27.45;;;;;;;;;;5077459;28;20040;-96
2022/05/19 08:57:05;;;;;;;31.08;27.90;;;;;;;;;;5064618;28;20044;-96
2022/05/19 08:59:50;;;;;;;28.10;25.48;;;;;;;;;;5070298;28;20052;-96
2022/05/19 09:02:28;;;;;;;83.80;75.25;;;;;;;;;;5060481;28;20036;-96
2022/05/19 09:05:28;;;;;;;36.42;32.60;;;;;;;;;;5059833;28;20040;-96
2022/05/19 09:08:37;;;;;;;29.20;26.00;;;;;;;;;;5077577;28;20048;-96
2022/05/19 09:11:03;;;;;;;;;;;;;;;;;;5060102;28;20043;-95
2022/05/19 09:13:47;;;;;;;30.10;27.02;;;;;;;;;;5054178;28;19927;-95
2022/05/19 09:16:16;;;;;;;31.25;27.65;;;;;;;;;;5054941;28;20113;-94
2022/05/19 09:18:48;;;;;;;30.05;27.13;;;;;;;;;;5045856;28;20046;-96
2022/05/19 09:21:14;;;;;;;29.48;26.50;;;;;;;;;;5056494;28;20041;-95
2022/05/19 09:23:44;;;;;;;28.83;25.15;;;;;;;;;;5039475;28;22412;-95
2022/05/19 09:26:22;;;;;;;28.20;24.60;;;;;;;;;;5039303;28;20052;-94
2022/05/19 09:28:54;;;;;;;26.10;23.52;;;;;;;;;;5044884;28;20059;-94
2022/05/19 09:31:33;;;;;;;27.23;24.33;;;;;;;;;;5039419;28;20135;-94
2022/05/19 09:34:01;;;;;;;26.08;23.45;;;;;;;;;;5056104;28;20037;-94
2022/05/19 09:36:27;;;;;;;27.63;24.70;;;;;;;;;;5055690;28;20733;-96
2022/05/19 09:39:01;;;;;;;28.23;25.48;;;;;;;;;;5056002;28;20045;-94
2022/05/19 09:41:36;;;;;;;23.65;20.35;;;;;;;;;;5056041;28;20086;-94
2022/05/19 09:44:04;;;;;;;27.08;24.60;;;;;;;;;;5056044;28;20052;-93
2022/05/19 09:46:41;;;;;;;27.85;24.85;;;;;;;;;;5055802;28;20094;-93
2022/05/19 09:49:18;;;;;;;27.30;24.50;;;;;;;;;;5055904;28;20131;-94
2022/05/19 09:51:48;;;;;;;28.27;25.30;;;;;;;;;;5055087;28;20040;-90
2022/05/19 09:54:15;;;;;;;25.88;23.52;;;;;;;;;;5053321;28;20118;-90
2022/05/19 09:56:46;;;;;;;25.98;22.90;;;;;;;;;;5057930;28;20452;-96
2022/05/19 09:59:17;;;;;;;27.52;24.77;;;;;;;;;;5056934;28;20179;-96
2022/05/19 10:01:47;;;;;;;26.77;24.23;;;;;;;;;;5056009;28;20052;-95
2022/05/19 10:04:18;;;;;;;25.88;23.10;;;;;;;;;;5056715;28;20036;-95
2022/05/19 10:06:52;;;;;;;24.88;22.38;;;;;;;;;;5055558;28;20495;-93
2022/05/19 10:09:20;;;;;;;25.05;22.52;;;;;;;;;;5056649;28;20566;-96
2022/05/19 10:11:50;;;;;;;25.08;22.58;;;;;;;;;;5055797;28;20502;-94
2022/05/19 10:14:19;;;;;;;26.17;23.08;;;;;;;;;;5057064;28;20084;-95
2022/05/19 10:17:26;;;;;;;24.92;22.40;;;;;;;;;;5059301;28;20044;-94
2022/05/19 10:20:11;;;;;;;21.98;19.02;;;;;;;;;;5015547;28;20497;-94
2022/05/19 10:22:50;;;;;;;25.20;22.60;;;;;;;;;;5038094;28;20059;-89
2022/05/19 10:25:24;;;;;;;25.60;23.00;;;;;;;;;;5058589;28;20512;-92
2022/05/19 10:31:04;;;;;;;28.73;23.27;;;;;;;;;;5058683;28;20497;-91
2022/05/19 10:33:43;;;;;;;26.70;24.02;;;;;;;;;;5058594;28;20502;-91
2022/05/19 10:36:16;;;;;;;24.85;22.35;;;;;;;;;;5058707;28;20076;-92
2022/05/19 10:38:42;;;;;;;26.27;22.83;;;;;;;;;;5058140;28;20056;-93
2022/05/19 10:41:31;;;;;;;24.85;22.38;;;;;;;;;;5058726;28;20045;-94
2022/05/19 10:44:23;;;;;;;25.02;22.77;;;;;;;;;;5058336;28;20110;-92
2022/05/19 10:47:08;;;;;;;24.08;21.75;;;;;;;;;;5058203;28;20044;-93
2022/05/19 10:49:35;;;;;;;25.42;23.02;;;;;;;;;;5058390;28;20048;-93
2022/05/19 10:52:04;;;;;;;26.25;23.65;;;;;;;;;;5058699;28;20074;-92
2022/05/19 10:54:36;;;;;;;26.40;23.70;;;;;;;;;;5058152;28;20108;-93
2022/05/19 10:57:14;;;;;;;25.73;23.13;;;;;;;;;;5058263;28;20259;-93
2022/05/19 10:59:59;;;;;;;24.33;22.02;;;;;;;;;;5058176;28;20072;-93
2022/05/19 11:02:42;;;;;;;24.48;22.08;;;;;;;;;;5057994;28;20044;-91
2022/05/19 11:05:14;;;;;;;25.30;22.85;;;;;;;;;;5056926;28;20496;-93
2022/05/19 11:07:58;;;;;;;24.60;22.40;;;;;;;;;;5058640;28;20044;-93
2022/05/19 11:10:44;;;;;;;42.33;20.05;;;;;;;;;;5058149;28;20087;-94
2022/05/19 11:13:13;;;;;;;17.60;15.80;;;;;;;;;;5055314;28;20056;-93
2022/05/19 11:15:41;;;;;;;17.20;15.40;;;;;;;;;;5054668;28;20048;-94
2022/05/19 11:18:10;;;;;;;17.20;15.38;;;;;;;;;;5050396;28;20078;-94
2022/05/19 11:20:55;;;;;;;16.90;15.20;;;;;;;;;;5072809;28;20093;-94
2022/05/19 11:23:22;;;;;;;18.95;17.08;;;;;;;;;;5055992;28;20094;-94
2022/05/19 11:28:41;;;;;;;19.33;17.20;;;;;;;;;;5072982;28;20219;-93
2022/05/19 11:31:12;;;;;;;19.98;17.88;;;;;;;;;;5057194;28;20044;-92
2022/05/19 11:33:40;;;;;;;19.15;17.13;;;;;;;;;;5058030;28;20044;-92
2022/05/19 11:36:15;;;;;;;14.50;13.10;;;;;;;;;;5057329;28;20044;-95
2022/05/19 11:38:47;;;;;;;14.48;12.90;;;;;;;;;;5074113;28;20044;-93
2022/05/19 11:41:16;;;;;;;12.80;11.47;;;;;;;;;;5057840;28;20091;-94
2022/05/19 11:43:46;;;;;;;13.73;12.48;;;;;;;;;;5058047;28;20432;-94
2022/05/19 11:46:14;;;;;;;14.63;13.20;;;;;;;;;;5058346;28;20489;-94
2022/05/19 11:55:13;;;;;;;10.93;9.35;;;;;;;;;;5074123;28;20412;-94
2022/05/19 11:57:39;;;;;;;;;;;;;;;;;;4958902;28;20189;-93
2022/05/19 12:00:06;;;;;;;9.05;6.00;;;;;;;;;;4990711;28;20016;-92
2022/05/19 12:02:38;;;;;;;6.30;5.70;;;;;;;;;;5011655;28;20084;-94
2022/05/19 12:05:12;;;;;;;7.15;5.30;;;;;;;;;;5056839;28;20094;-94
2022/05/19 12:07:50;;;;;;;6.95;5.57;;;;;;;;;;5057616;28;20489;-94
2022/05/19 12:10:18;;;;;;;5.82;5.10;;;;;;;;;;5073724;28;20052;-91
2022/05/19 12:12:50;;;;;;;3.17;2.83;;;;;;;;;;5057715;28;20098;-94
2022/05/19 12:15:18;;;;;;;5.30;3.35;;;;;;;;;;5074048;28;20077;-95
2022/05/19 12:18:08;;;;;;;3.33;3.00;;;;;;;;;;5073750;28;20097;-94
2022/05/19 12:20:35;;;;;;;5.22;2.78;;;;;;;;;;5012144;28;20446;-93
2022/05/19 12:23:19;;;;;;;5.68;2.60;;;;;;;;;;5057427;28;20405;-94
2022/05/19 12:25:48;;;;;;;4.13;2.50;;;;;;;;;;5056445;28;20475;-94
2022/05/19 12:28:14;;;;;;;10.40;3.33;;;;;;;;;;5057099;28;20088;-93
2022/05/19 12:33:52;;;;;;;2.97;2.60;;;;;;;;;;5074013;28;20166;-95
2022/05/19 12:36:25;;;;;;;3.97;2.80;;;;;;;;;;5056403;28;20035;-93
2022/05/19 12:38:52;;;;;;;5.32;3.47;;;;;;;;;;5056713;28;20051;-93
2022/05/19 12:41:24;;;;;;;3.53;3.22;;;;;;;;;;5056594;28;20055;-93
2022/05/19 12:43:51;;;;;;;3.65;3.33;;;;;;;;;;5056418;28;20044;-92
2022/05/19 12:46:38;;;;;;;4.05;3.65;;;;;;;;;;5056660;28;20127;-94
2022/05/19 12:49:25;;;;;;;4.78;3.42;;;;;;;;;;5056353;28;20056;-93
2022/05/19 12:51:53;;;;;;;3.70;3.28;;;;;;;;;;5056831;28;20043;-94
2022/05/19 12:54:20;;;;;;;12.07;5.40;;;;;;;;;;5056982;28;20087;-93
2022/05/19 12:56:46;;;;;;;14.93;5.25;;;;;;;;;;5056539;28;20109;-94
2022/05/19 12:59:33;;;;;;;10.57;4.97;;;;;;;;;;5057121;28;20048;-94
2022/05/19 13:02:01;;;;;;;3.25;2.90;;;;;;;;;;5055330;28;20040;-91
2022/05/19 13:04:31;;;;;;;3.20;2.90;;;;;;;;;;5072134;28;20040;-92
2022/05/19 13:07:15;;;;;;;3.00;2.70;;;;;;;;;;5055468;28;20056;-92
2022/05/19 13:09:42;;;;;;;3.53;3.00;;;;;;;;;;5055142;28;20079;-91
2022/05/19 13:12:20;;;;;;;3.30;3.00;;;;;;;;;;5055215;28;20047;-90
2022/05/19 13:14:51;;;;;;;6.78;3.80;;;;;;;;;;5072322;28;20067;-93
2022/05/19 13:17:20;;;;;;;10.70;4.35;;;;;;;;;;5072441;28;20134;-94
2022/05/19 13:19:47;;;;;;;9.75;4.43;;;;;;;;;;5055916;28;20067;-92
2022/05/19 13:22:27;;;;;;;4.75;4.05;;;;;;;;;;5055572;28;20040;-93
2022/05/19 13:24:53;;;;;;;7.13;4.57;;;;;;;;;;5056110;28;20135;-93
2022/05/19 13:30:22;;;;;;;7.28;5.97;;;;;;;;;;5031642;28;20064;-91
2022/05/19 13:32:49;;;;;;;10.43;7.43;;;;;;;;;;5072166;28;20064;-91
2022/05/19 13:35:17;;;;;;;8.85;7.88;;;;;;;;;;5055225;28;20040;-92
2022/05/19 13:37:45;;;;;;;8.70;7.05;;;;;;;;;;5071859;28;20080;-91
2022/05/19 13:40:29;;;;;;;9.80;7.30;;;;;;;;;;5071929;28;20043;-91
2022/05/19 13:43:08;;;;;;;11.40;7.15;;;;;;;;;;5055203;28;20040;-90
2022/05/19 13:45:43;;;;;;;12.73;8.25;;;;;;;;;;5071049;28;20508;-91
2022/05/19 13:48:14;;;;;;;12.02;8.85;;;;;;;;;;5071314;28;20128;-89
2022/05/19 13:50:40;;;;;;;14.00;9.10;;;;;;;;;;5074330;28;20531;-90
2022/05/19 13:53:07;;;;;;;17.67;10.45;;;;;;;;;;5058697;28;20123;-90
2022/05/19 13:55:34;;;;;;;13.52;8.48;;;;;;;;;;5058034;28;20036;-91
2022/05/19 13:58:00;;;;;;;9.25;6.47;;;;;;;;;;5074977;28;20074;-89
2022/05/19 14:00:29;;;;;;;12.55;6.90;;;;;;;;;;5075026;28;20044;-90
2022/05/19 14:02:58;;;;;;;10.07;7.15;;;;;;;;;;5058589;28;20044;-89
2022/05/19 14:05:29;;;;;;;13.15;6.45;;;;;;;;;;5074611;28;20519;-90
2022/05/19 14:07:57;;;;;;;7.80;5.43;;;;;;;;;;5075010;28;20089;-90
2022/05/19 14:10:25;;;;;;;7.32;4.22;;;;;;;;;;5058392;28;20504;-90
2022/05/19 14:12:52;;;;;;;8.75;4.57;;;;;;;;;;5074974;28;20465;-90
2022/05/19 14:15:21;;;;;;;14.30;5.80;;;;;;;;;;5055470;28;20044;-90
2022/05/19 14:17:57;;;;;;;12.98;6.03;;;;;;;;;;5046735;28;20044;-90
2022/05/19 14:20:33;;;;;;;12.25;6.10;;;;;;;;;;5056525;28;20052;-90
2022/05/19 14:23:00;;;;;;;11.27;5.68;;;;;;;;;;5074708;28;20052;-90
2022/05/19 14:25:28;;;;;;;9.88;5.22;;;;;;;;;;5046513;28;20086;-90
2022/05/19 14:27:59;;;;;;;9.10;5.35;;;;;;;;;;5037354;28;20099;-91
2022/05/19 14:30:29;;;;;;;16.35;6.47;;;;;;;;;;5050784;28;20045;-89
2022/05/19 14:33:01;;;;;;;11.35;5.32;;;;;;;;;;5056095;28;20537;-89
2022/05/19 14:35:39;;;;;;;7.50;4.80;;;;;;;;;;5070484;28;20040;-90
2022/05/19 14:38:12;;;;;;;9.05;4.63;;;;;;;;;;5070011;28;20224;-89
2022/05/19 14:43:24;;;;;;;8.55;4.97;;;;;;;;;;5074299;28;20139;-89
2022/05/19 14:45:52;;;;;;;5.50;4.32;;;;;;;;;;5073740;28;20394;-89
2022/05/19 14:48:23;;;;;;;8.68;4.47;;;;;;;;;;5074069;28;20131;-89
2022/05/19 14:50:52;;;;;;;8.07;4.95;;;;;;;;;;5073231;28;20417;-89
2022/05/19 14:53:20;;;;;;;12.43;5.30;;;;;;;;;;5073904;28;20067;-89
2022/05/19 14:55:54;;;;;;;8.05;4.43;;;;;;;;;;5073405;28;20062;-89
2022/05/19 14:58:19;;;;;;;;;;;;;;;;;;5057431;28;20098;-89
2022/05/19 15:00:45;;;;;;;8.38;5.03;;;;;;;;;;5056701;28;19971;-89
2022/05/19 15:03:12;;;;;;;8.15;4.05;;;;;;;;;;5054554;28;20485;-89
2022/05/19 15:05:39;;;;;;;6.03;4.03;;;;;;;;;;5052910;28;20044;-89
2022/05/19 15:08:06;;;;;;;5.75;4.00;;;;;;;;;;5053025;28;20048;-89
2022/05/19 15:10:33;;;;;;;5.88;4.65;;;;;;;;;;5051277;28;20108;-89
2022/05/19 15:12:59;;;;;;;8.75;3.75;;;;;;;;;;5073099;28;20048;-89
2022/05/19 15:15:26;;;;;;;5.47;3.50;;;;;;;;;;5072796;28;20055;-88